Terminal Aerodrome Forecast
Issued by NWS Knoxville/Tri Cities, TN

Home | Current Version | Previous Version | Text Only | Print | Product List | Glossary On
Versions: 1 2 3 4 5 6 7 8 9 10 11 12 13 14 15 16 17 18 19 20 21 22 23 24 25 26 27 28 29 30 31 32 33 34
863
FTUS44 KMRX 281308 AAA
TAFTYS
TAF AMD
KTYS 281308Z 2813/2912 24003KT 6SM BR BKN040 OVC060
     FM281600 22006KT 6SM -SHRA BKN030 OVC050
     FM281900 24008KT 4SM -SHRA VCTS OVC025CB
     FM290100 25007KT 5SM -RA BR OVC015
     FM290600 27007KT 6SM BR OVC015=

USA.gov is the U.S. government's official web portal to all federal, state and local government web resources and services.